createdAt,value
2018-12-25T00:02:17.046Z,0.80
2018-12-25T00:07:18.533Z,1.15
2018-12-25T00:12:19.581Z,0.86
2018-12-25T00:17:22.067Z,0.55
2018-12-25T00:22:23.089Z,0.94
2018-12-25T00:27:26.930Z,0.93
2018-12-25T00:32:28.003Z,0.86
2018-12-25T00:37:31.294Z,0.80
2018-12-25T00:42:32.223Z,0.50
2018-12-25T00:47:33.100Z,0.84
2018-12-25T00:52:34.346Z,0.63
2018-12-25T00:57:35.927Z,0.93
2018-12-25T01:02:37.015Z,0.42
2018-12-25T01:07:37.929Z,0.66
2018-12-25T01:12:39.224Z,0.76
2018-12-25T01:17:40.115Z,0.86
2018-12-25T01:22:41.206Z,0.54
2018-12-25T01:27:43.458Z,1.01
2018-12-25T01:32:44.544Z,1.08
2018-12-25T01:37:45.589Z,1.52
2018-12-25T01:42:48.098Z,1.89
2018-12-25T01:47:51.350Z,1.69
2018-12-25T01:52:54.536Z,1.81
2018-12-25T01:58:04.565Z,2.05
2018-12-25T02:03:07.468Z,2.19
2018-12-25T02:08:41.409Z,1.94
2018-12-25T02:13:42.583Z,2.51
2018-12-25T02:19:04.090Z,2.02
2018-12-25T02:24:07.900Z,2.34
2018-12-25T02:34:29.547Z,1.45
2018-12-25T03:02:16.565Z,1.51
2018-12-25T03:07:19.598Z,1.18
2018-12-25T03:12:20.356Z,1.48
2018-12-25T03:17:21.075Z,1.92
2018-12-25T03:22:21.753Z,2.06
2018-12-25T03:27:22.550Z,1.58
2018-12-25T03:32:23.234Z,1.72
2018-12-25T03:37:23.997Z,1.84
2018-12-25T03:42:24.753Z,1.66
2018-12-25T03:47:25.465Z,1.68
2018-12-25T03:52:26.120Z,2.09
2018-12-25T03:57:27.037Z,2.15
2018-12-25T04:02:27.769Z,2.21
2018-12-25T04:07:28.569Z,2.18
2018-12-25T04:12:29.197Z,2.10
2018-12-25T04:17:29.846Z,2.74
2018-12-25T04:22:31.886Z,1.69
2018-12-25T04:27:32.607Z,1.64
2018-12-25T04:32:33.403Z,1.81
2018-12-25T04:37:34.143Z,1.34
2018-12-25T04:42:34.877Z,1.44
2018-12-25T04:47:35.620Z,1.79
2018-12-25T04:52:36.343Z,2.26
2018-12-25T04:57:38.215Z,2.00
2018-12-25T05:02:38.933Z,2.00
2018-12-25T05:07:39.782Z,1.51
2018-12-25T05:12:40.785Z,1.51
2018-12-25T05:17:41.535Z,1.56
2018-12-25T05:22:42.302Z,2.01
2018-12-25T05:27:43.060Z,2.01
2018-12-25T05:32:43.825Z,1.96
2018-12-25T05:37:45.464Z,2.02
2018-12-25T05:42:46.152Z,2.02
2018-12-25T05:47:46.850Z,2.68
2018-12-25T05:52:47.589Z,2.14
2018-12-25T05:57:48.415Z,1.76
2018-12-25T06:02:49.027Z,2.06
2018-12-25T06:07:49.723Z,1.79
2018-12-25T06:12:50.499Z,2.12
2018-12-25T06:17:51.229Z,2.14
2018-12-25T06:22:52.034Z,2.29
2018-12-25T06:27:52.696Z,2.49
2018-12-25T06:32:53.491Z,2.36
2018-12-25T06:37:54.203Z,2.52
2018-12-25T06:42:54.955Z,2.72
2018-12-25T06:47:55.727Z,2.72
2018-12-25T06:52:56.540Z,2.34
2018-12-25T06:57:57.198Z,2.08
2018-12-25T07:02:57.998Z,1.88
2018-12-25T07:07:58.725Z,2.34
2018-12-25T07:12:59.478Z,2.47
2018-12-25T07:18:00.206Z,3.09
2018-12-25T07:23:01.079Z,2.77
2018-12-25T07:28:01.769Z,3.21
2018-12-25T07:33:02.465Z,2.73
2018-12-25T07:38:03.137Z,3.00
2018-12-25T07:43:03.842Z,3.08
2018-12-25T07:48:04.574Z,3.14
2018-12-25T07:53:05.422Z,2.97
2018-12-25T07:58:06.121Z,2.77
2018-12-25T08:03:06.823Z,2.56
2018-12-25T08:08:07.558Z,2.70
2018-12-25T08:13:08.316Z,2.78
2018-12-25T08:18:09.055Z,2.91
2018-12-25T08:23:09.664Z,2.88
2018-12-25T08:28:10.473Z,3.59
2018-12-25T08:33:12.204Z,3.36
2018-12-25T08:38:12.980Z,3.79
2018-12-25T08:43:13.671Z,2.94
2018-12-25T08:48:14.366Z,2.88
2018-12-25T08:53:15.239Z,3.25
2018-12-25T08:58:16.059Z,2.69
2018-12-25T09:08:51.781Z,3.16
2018-12-25T09:13:52.500Z,3.57
2018-12-25T09:18:53.351Z,3.28
2018-12-25T09:23:54.151Z,3.76
2018-12-25T09:28:54.906Z,3.53
2018-12-25T09:33:55.613Z,3.44
2018-12-25T09:38:56.421Z,4.03
2018-12-25T09:43:57.112Z,3.88
2018-12-25T09:48:57.874Z,3.33
2018-12-25T09:53:59.654Z,2.95
2018-12-25T09:59:00.366Z,3.08
2018-12-25T10:04:01.061Z,3.20
2018-12-25T10:09:04.070Z,3.31
2018-12-25T10:14:04.770Z,3.36
2018-12-25T10:19:05.443Z,3.50
2018-12-25T10:24:06.321Z,3.46
2018-12-25T10:29:06.960Z,3.51
2018-12-25T10:34:07.675Z,3.51
2018-12-25T10:39:09.370Z,3.60
2018-12-25T10:44:10.010Z,3.57
2018-12-25T10:56:07.702Z,3.69
2018-12-25T11:00:46.337Z,3.75
2018-12-25T11:05:47.194Z,4.03
2018-12-25T11:10:49.242Z,4.06
2018-12-25T11:16:02.590Z,4.32
2018-12-25T11:20:55.288Z,4.29
2018-12-25T11:25:55.976Z,4.54
2018-12-25T11:36:41.069Z,4.74
2018-12-25T11:41:41.817Z,4.85
2018-12-25T11:47:15.351Z,4.95
2018-12-25T11:52:17.714Z,4.97
2018-12-25T11:57:20.423Z,4.71
2018-12-25T12:07:36.263Z,4.88
2018-12-25T12:12:44.798Z,5.08
2018-12-25T12:17:48.837Z,4.89
2018-12-25T12:22:49.667Z,5.16
2018-12-25T12:28:55.099Z,5.48
2018-12-25T12:33:47.546Z,5.42
2018-12-25T12:38:09.270Z,5.44
2018-12-25T12:43:10.479Z,5.10
2018-12-25T12:48:11.429Z,5.21
2018-12-25T12:53:12.154Z,5.23
2018-12-25T12:58:13.127Z,5.23
2018-12-25T13:03:21.468Z,5.13
2018-12-25T13:08:22.476Z,5.08
2018-12-25T13:13:23.608Z,5.15
2018-12-25T13:18:24.679Z,5.01
2018-12-25T13:23:30.331Z,4.83
2018-12-25T13:28:33.747Z,4.81
2018-12-25T13:33:39.983Z,4.94
2018-12-25T13:38:42.865Z,4.81
2018-12-25T13:43:44.258Z,4.73
2018-12-25T13:48:45.395Z,4.82
2018-12-25T13:53:51.104Z,4.86
2018-12-25T13:58:53.723Z,4.79
2018-12-25T14:03:55.398Z,4.82
2018-12-25T14:08:56.573Z,4.70
2018-12-25T14:14:02.254Z,4.73
2018-12-25T14:19:05.391Z,4.68
2018-12-25T14:24:10.442Z,4.64
2018-12-25T14:29:13.240Z,4.62
2018-12-25T14:34:14.375Z,4.62
2018-12-25T14:39:15.592Z,4.55
2018-12-25T14:44:16.941Z,4.46
2018-12-25T14:49:18.856Z,4.46
2018-12-25T14:54:22.538Z,4.59
2018-12-25T14:59:24.393Z,4.47
2018-12-25T15:04:25.538Z,4.43
2018-12-25T15:09:28.456Z,4.55
2018-12-25T15:14:34.923Z,4.38
2018-12-25T15:19:36.115Z,4.44
2018-12-25T15:24:37.372Z,4.30
2018-12-25T15:29:39.617Z,4.40
2018-12-25T15:34:50.078Z,4.25
2018-12-25T15:39:52.898Z,4.54
2018-12-25T15:44:54.882Z,5.04
2018-12-25T15:49:55.763Z,4.18
2018-12-25T15:54:58.256Z,4.19
2018-12-25T15:59:59.331Z,4.04
2018-12-25T16:05:00.504Z,4.39
2018-12-25T16:10:03.353Z,3.94
2018-12-25T16:15:04.838Z,4.00
2018-12-25T16:20:07.875Z,4.02
2018-12-25T16:25:09.115Z,4.08
2018-12-25T16:30:09.889Z,4.05
2018-12-25T16:35:10.841Z,4.26
2018-12-25T16:40:14.574Z,4.24
2018-12-25T16:45:15.665Z,4.39
2018-12-25T16:50:16.438Z,4.14
2018-12-25T16:55:17.581Z,4.16
2018-12-25T17:00:18.549Z,4.25
2018-12-25T17:05:20.982Z,3.98
2018-12-25T17:10:21.794Z,4.01
2018-12-25T17:15:29.031Z,4.49
2018-12-25T17:20:30.211Z,4.47
2018-12-25T17:25:31.929Z,4.01
2018-12-25T17:30:32.687Z,3.94
2018-12-25T17:35:33.830Z,4.13
2018-12-25T17:40:34.971Z,4.55
2018-12-25T17:45:37.032Z,4.44
2018-12-25T17:50:39.998Z,4.62
2018-12-25T17:55:42.048Z,4.42
2018-12-25T18:00:43.398Z,4.31
2018-12-25T18:05:46.606Z,4.34
2018-12-25T18:10:50.370Z,4.30
2018-12-25T18:15:54.724Z,3.92
2018-12-25T18:20:56.012Z,4.14
2018-12-25T18:25:58.495Z,4.11
2018-12-25T18:31:00.037Z,3.75
2018-12-25T18:36:01.546Z,3.53
2018-12-25T18:41:02.401Z,3.56
2018-12-25T18:46:03.326Z,3.41
2018-12-25T18:51:07.845Z,3.38
2018-12-25T18:56:09.034Z,3.54
2018-12-25T19:01:12.228Z,3.14
2018-12-25T19:06:13.348Z,3.47
2018-12-25T19:11:14.337Z,3.75
2018-12-25T19:16:18.037Z,3.64
2018-12-25T19:21:18.781Z,3.70
2018-12-25T19:26:21.303Z,3.50
2018-12-25T19:31:22.133Z,3.15
2018-12-25T19:36:23.166Z,3.15
2018-12-25T19:41:50.797Z,3.42
2018-12-25T19:46:51.669Z,3.68
2018-12-25T19:51:54.905Z,3.28
2018-12-25T19:57:05.477Z,3.14
2018-12-25T20:02:07.881Z,2.99
2018-12-25T20:07:30.853Z,2.37
2018-12-25T20:13:04.101Z,2.31
2018-12-25T20:18:40.529Z,1.98
2018-12-25T20:24:19.254Z,1.75
2018-12-25T20:29:52.419Z,1.81
2018-12-25T20:35:15.249Z,1.58
2018-12-25T20:40:29.082Z,1.50
2018-12-25T20:46:11.086Z,0.93
2018-12-25T20:51:30.089Z,1.27
2018-12-25T21:08:27.220Z,1.11
2018-12-25T21:13:40.887Z,1.09
2018-12-25T21:18:46.888Z,0.87
2018-12-25T21:24:25.269Z,0.79
2018-12-25T21:29:26.231Z,0.91
2018-12-25T21:34:26.894Z,0.77
2018-12-25T21:39:27.586Z,0.67
2018-12-25T21:44:28.232Z,0.72
2018-12-25T21:49:29.465Z,0.60
2018-12-25T21:54:30.429Z,0.47
2018-12-25T21:59:31.462Z,0.41
2018-12-25T22:04:32.439Z,0.48
2018-12-25T22:09:33.444Z,0.47
2018-12-25T22:14:34.129Z,0.85
2018-12-25T22:19:34.958Z,0.43
2018-12-25T22:24:36.017Z,0.11
2018-12-25T22:29:37.089Z,0.12
2018-12-25T22:34:37.830Z,0.11
2018-12-25T22:39:38.624Z,0.16
2018-12-25T22:44:39.428Z,0.39
2018-12-25T22:49:40.453Z,0.21
2018-12-25T22:54:42.226Z,-0.05
2018-12-25T22:59:43.099Z,-0.08
2018-12-25T23:04:46.900Z,0.38
2018-12-25T23:09:57.216Z,0.54
2018-12-25T23:14:59.720Z,0.01
2018-12-25T23:20:00.990Z,-0.21
2018-12-25T23:30:19.050Z,-0.07
2018-12-25T23:35:29.745Z,-0.31
2018-12-25T23:40:30.636Z,-0.38
2018-12-25T23:45:31.330Z,-0.44
2018-12-25T23:50:32.224Z,0.04
2018-12-25T23:55:33.460Z,-0.07
